Time;durP1;ratioP1;P1;durP2;ratioP2;P2;SDS_P1;SDS_P2;PMS_P1;PMS_P2;Temp;Humidity;BMP_temperature;BMP_pressure;BME280_temperature;BME280_humidity;BME280_pressure;Samples;Min_cycle;Max_cycle;Signal;HPM_P1;HPM_P2
2022/06/21 00:01:26;;;;;;;2.45;1.25;;;;;;;14.62;64.87;101856.00;5076869;27;96737;-34
2022/06/21 00:03:51;;;;;;;2.63;1.05;;;;;;;14.55;64.50;101854.63;5076200;27;99369;-34
2022/06/21 00:06:23;;;;;;;5.43;1.45;;;;;;;14.57;65.05;101866.31;5074910;27;100739;-34
2022/06/21 00:08:49;;;;;;;;;;;;;;;14.56;65.10;101867.31;5075653;27;96751;-34
2022/06/21 00:11:37;;;;;;;5.93;0.98;;;;;;;14.52;64.56;101851.19;5076880;27;96819;-34
2022/06/21 00:14:02;;;;;;;5.15;1.27;;;;;;;14.53;64.40;101851.06;5075816;27;98191;-33
2022/06/21 00:16:30;;;;;;;9.70;1.65;;;;;;;14.49;64.50;101838.63;5076642;27;97474;-34
2022/06/21 00:18:56;;;;;;;2.92;1.30;;;;;;;14.51;64.62;101843.97;5076411;27;96596;-34
2022/06/21 00:21:24;;;;;;;3.15;1.08;;;;;;;14.50;65.09;101834.03;5076505;27;96785;-34
2022/06/21 00:23:52;;;;;;;1.50;1.10;;;;;;;14.44;64.56;101825.28;5074047;27;100949;-34
2022/06/21 00:26:19;;;;;;;3.47;1.30;;;;;;;14.46;64.58;101846.97;5073902;27;101476;-33
2022/06/21 00:28:45;;;;;;;2.60;1.25;;;;;;;14.43;64.80;101847.19;5074742;27;96604;-33
2022/06/21 00:31:16;;;;;;;1.70;1.10;;;;;;;14.42;65.29;101835.41;5076106;27;96793;-34
2022/06/21 00:33:42;;;;;;;;;;;;;;;14.41;66.49;101830.03;5076173;27;99279;-34
2022/06/21 00:36:21;;;;;;;1.55;0.80;;;;;;;14.32;65.91;101817.84;5075842;27;97607;-34
2022/06/21 00:38:47;;;;;;;2.70;1.27;;;;;;;14.28;66.31;101831.75;5074915;27;96767;-34
2022/06/21 00:41:16;;;;;;;3.63;1.35;;;;;;;14.25;66.64;101835.53;5075098;27;96988;-34
2022/06/21 00:43:47;;;;;;;1.95;1.08;;;;;;;14.18;66.59;101843.25;5073934;27;100685;-34
2022/06/21 00:46:37;;;;;;;3.57;0.87;;;;;;;14.10;67.36;101834.63;5074291;27;100662;-34
2022/06/21 00:49:06;;;;;;;3.00;1.05;;;;;;;13.99;66.77;101832.56;5075843;27;96455;-34
2022/06/21 00:51:34;;;;;;;2.83;1.42;;;;;;;13.96;66.86;101827.28;5074424;27;96826;-34
2022/06/21 00:54:08;;;;;;;6.38;1.25;;;;;;;13.97;67.23;101836.38;5075701;27;97971;-34
2022/06/21 00:56:42;;;;;;;1.88;1.20;;;;;;;13.95;67.36;101830.13;5074249;27;100785;-34
2022/06/21 00:59:23;;;;;;;2.53;1.50;;;;;;;13.91;67.31;101823.97;5075944;27;96549;-34
2022/06/21 01:01:50;;;;;;;2.20;1.13;;;;;;;13.87;66.25;101811.53;5075598;27;96787;-34
2022/06/21 01:04:33;;;;;;;1.67;1.10;;;;;;;13.84;67.44;101806.25;5074065;27;100764;-34
2022/06/21 01:07:01;;;;;;;2.80;1.02;;;;;;;13.85;66.47;101791.66;5073161;27;101211;-33
2022/06/21 01:09:35;;;;;;;3.38;1.02;;;;;;;13.86;66.69;101795.25;5074200;27;96574;-34
2022/06/21 01:12:08;;;;;;;3.28;1.48;;;;;;;13.87;66.94;101806.06;5074356;27;96608;-34
2022/06/21 01:14:38;;;;;;;1.67;1.10;;;;;;;13.90;67.22;101807.75;5073513;27;102489;-34
2022/06/21 01:17:05;;;;;;;3.92;1.25;;;;;;;13.88;66.39;101801.50;5073932;27;100789;-33
2022/06/21 01:19:55;;;;;;;9.15;1.60;;;;;;;13.91;67.58;101804.91;5074006;27;96581;-34
2022/06/21 01:22:30;;;;;;;2.67;1.58;;;;;;;13.94;66.88;101806.56;5075872;27;96565;-34
2022/06/21 01:25:07;;;;;;;2.13;1.20;;;;;;;13.94;67.21;101812.00;5073642;27;100598;-34
2022/06/21 01:27:33;;;;;;;1.85;0.95;;;;;;;13.92;66.78;101814.84;5075586;27;97784;-34
2022/06/21 01:29:59;;;;;;;3.95;1.27;;;;;;;13.91;66.57;101807.63;5073980;27;96491;-34
2022/06/21 01:32:24;;;;;;;4.45;1.30;;;;;;;13.89;66.45;101809.56;5075634;27;96681;-34
2022/06/21 01:34:50;;;;;;;7.85;1.60;;;;;;;13.87;67.28;101805.19;5075176;27;97468;-34
2022/06/21 01:37:23;;;;;;;2.45;1.20;;;;;;;13.84;67.11;101814.41;5073613;27;100846;-34
2022/06/21 01:40:06;;;;;;;2.83;1.10;;;;;;;13.80;67.76;101812.88;5073562;27;96547;-34
2022/06/21 01:42:33;;;;;;;1.92;1.08;;;;;;;13.78;66.99;101812.06;5075105;27;96632;-34
2022/06/21 01:45:03;;;;;;;5.88;1.30;;;;;;;13.74;67.63;101816.81;5074847;27;97480;-33
2022/06/21 01:47:43;;;;;;;5.13;1.70;;;;;;;13.72;67.52;101806.97;5074865;27;100827;-34
2022/06/21 01:50:10;;;;;;;3.92;1.00;;;;;;;13.73;67.58;101808.72;5075323;27;96725;-34
2022/06/21 01:52:38;;;;;;;2.05;1.10;;;;;;;13.66;67.59;101799.16;5073809;27;96859;-34
2022/06/21 01:55:32;;;;;;;1.95;1.08;;;;;;;13.69;68.24;101797.16;5073156;27;101497;-34
2022/06/21 01:58:00;;;;;;;3.97;1.52;;;;;;;13.60;67.47;101794.97;5073733;27;100679;-34
2022/06/21 02:00:26;;;;;;;3.00;1.17;;;;;;;13.60;67.10;101793.13;5073570;27;96555;-34
2022/06/21 02:02:55;;;;;;;4.68;1.48;;;;;;;13.66;67.24;101796.44;5075167;27;96752;-34
2022/06/21 02:05:25;;;;;;;1.60;0.93;;;;;;;13.65;67.61;101805.59;5072762;27;101237;-34
2022/06/21 02:07:59;;;;;;;4.93;1.33;;;;;;;13.63;68.40;101802.06;5073063;27;100769;-34
2022/06/21 02:10:41;;;;;;;2.00;1.20;;;;;;;13.59;67.90;101809.56;5075559;27;96512;-34
2022/06/21 02:13:24;;;;;;;2.22;1.23;;;;;;;13.57;68.63;101806.03;5075072;27;96587;-34
2022/06/21 02:16:15;;;;;;;3.95;1.15;;;;;;;13.54;68.39;101804.38;5073249;27;101297;-34
2022/06/21 02:18:45;;;;;;;3.85;1.55;;;;;;;13.46;67.80;101790.31;5072480;27;97598;-34
2022/06/21 02:21:25;;;;;;;3.75;1.65;;;;;;;13.44;68.05;101775.94;5077009;27;96568;-34
2022/06/21 02:23:54;;;;;;;1.52;1.15;;;;;;;13.44;68.37;101783.22;5077261;27;96796;-34
2022/06/21 02:26:22;;;;;;;3.50;1.50;;;;;;;13.43;67.62;101776.91;5076087;27;101167;-34
2022/06/21 02:28:48;;;;;;;3.38;1.80;;;;;;;13.47;66.99;101773.03;5076601;27;100720;-34
2022/06/21 02:31:14;;;;;;;3.88;1.42;;;;;;;13.48;67.54;101766.63;5076370;27;96551;-34
2022/06/21 02:33:41;;;;;;;5.38;1.40;;;;;;;13.48;67.81;101758.47;5078077;27;96771;-34
2022/06/21 02:36:12;;;;;;;4.13;1.65;;;;;;;13.48;67.75;101743.97;5077747;27;97489;-34
2022/06/21 02:38:56;;;;;;;;;;;;;;;13.48;69.07;101735.81;5076753;27;100629;-34
2022/06/21 02:41:30;;;;;;;1.55;1.10;;;;;;;13.44;68.08;101732.38;5078265;27;96806;-34
2022/06/21 02:44:08;;;;;;;3.55;1.73;;;;;;;13.47;68.08;101731.34;5076477;27;96787;-33
2022/06/21 02:46:38;;;;;;;2.28;1.45;;;;;;;13.44;68.12;101739.69;5077773;27;98013;-34
2022/06/21 02:49:26;;;;;;;2.80;1.70;;;;;;;13.40;68.63;101722.66;5076422;27;102249;-34
2022/06/21 02:52:01;;;;;;;7.35;2.10;;;;;;;13.40;69.15;101728.13;5077270;27;96630;-34
2022/06/21 02:54:34;;;;;;;3.78;1.70;;;;;;;13.40;68.06;101733.56;5076505;27;96859;-34
2022/06/21 02:57:26;;;;;;;4.15;1.92;;;;;;;13.41;69.51;101732.56;5075613;27;101263;-34
2022/06/21 02:59:54;;;;;;;4.07;1.53;;;;;;;13.29;68.44;101719.69;5076135;27;100841;-34
2022/06/21 03:02:26;;;;;;;4.03;1.95;;;;;;;13.38;68.53;101749.09;5076337;27;96667;-34
2022/06/21 03:04:58;;;;;;;3.65;1.42;;;;;;;13.35;68.40;101755.59;5078087;27;96571;-34
2022/06/21 03:07:28;;;;;;;;;;;;;;;13.33;69.88;101771.13;5076556;27;100801;-34
2022/06/21 03:09:54;;;;;;;2.25;1.13;;;;;;;13.20;69.87;101764.59;5076079;27;101293;-34
2022/06/21 03:12:24;;;;;;;3.05;1.80;;;;;;;13.23;69.65;101766.25;5076118;27;96573;-34
2022/06/21 03:14:52;;;;;;;2.53;2.08;;;;;;;13.08;69.90;101749.88;5076353;27;96991;-34
2022/06/21 03:17:23;;;;;;;4.43;1.40;;;;;;;13.08;69.82;101752.59;5075758;27;100877;-34
2022/06/21 03:19:52;;;;;;;4.07;2.05;;;;;;;13.04;69.93;101750.13;5075739;27;100884;-34
2022/06/21 03:22:19;;;;;;;2.25;1.25;;;;;;;13.10;69.53;101756.09;5075376;27;96616;-34
2022/06/21 03:24:48;;;;;;;3.03;1.52;;;;;;;13.03;69.50;101746.53;5076696;27;96917;-32
2022/06/21 03:27:24;;;;;;;2.00;1.40;;;;;;;12.96;69.84;101729.69;5075616;27;100820;-34
2022/06/21 03:29:50;;;;;;;4.85;1.63;;;;;;;13.01;69.75;101728.56;5074561;27;100796;-34
2022/06/21 03:32:15;;;;;;;4.03;1.77;;;;;;;12.96;69.01;101720.66;5077000;27;96574;-34
2022/06/21 03:34:42;;;;;;;4.07;1.85;;;;;;;13.00;69.45;101726.81;5077143;27;96817;-34
2022/06/21 03:37:07;;;;;;;4.75;1.80;;;;;;;12.95;69.13;101727.06;5075229;27;98916;-34
2022/06/21 03:42:20;;;;;;;2.78;1.60;;;;;;;12.96;70.07;101713.38;5077312;27;96547;-34
2022/06/21 03:44:58;;;;;;;4.82;1.67;;;;;;;12.91;70.00;101707.31;5075271;27;96898;-34
2022/06/21 03:47:30;;;;;;;2.58;1.80;;;;;;;12.93;69.73;101707.25;5074834;27;101533;-34
2022/06/21 03:50:36;;;;;;;2.42;1.50;;;;;;;12.96;70.22;101701.63;5075366;27;100767;-34
2022/06/21 03:53:13;;;;;;;4.72;1.75;;;;;;;12.98;69.75;101702.41;5077166;27;96466;-34
2022/06/21 03:56:09;;;;;;;2.08;1.63;;;;;;;13.05;70.18;101694.78;5075453;27;96665;-34
2022/06/21 03:58:40;;;;;;;6.15;1.58;;;;;;;13.05;69.10;101686.63;5076625;27;97620;-34
2022/06/21 04:01:23;;;;;;;3.58;1.83;;;;;;;12.98;71.03;101680.66;5076470;27;97901;-34
2022/06/21 04:04:01;;;;;;;5.07;2.13;;;;;;;13.03;70.09;101704.88;5075229;27;96649;-34
2022/06/21 04:07:04;;;;;;;2.92;1.67;;;;;;;13.04;70.81;101702.06;5076859;27;96460;-34
2022/06/21 04:09:50;;;;;;;5.88;2.05;;;;;;;13.05;70.88;101697.50;5076608;27;97996;-33
2022/06/21 04:12:43;;;;;;;3.60;1.73;;;;;;;13.02;70.93;101693.13;5074780;27;100865;-34
2022/06/21 04:15:11;;;;;;;5.85;1.65;;;;;;;13.11;69.47;101711.63;5076226;27;96834;-33
2022/06/21 04:17:43;;;;;;;3.78;1.92;;;;;;;13.09;70.00;101704.53;5075080;27;96930;-34
2022/06/21 04:20:13;;;;;;;4.95;1.55;;;;;;;13.07;70.70;101701.88;5074744;27;100957;-34
2022/06/21 04:22:53;;;;;;;2.50;1.52;;;;;;;13.03;69.99;101692.13;5074437;27;100882;-33
2022/06/21 04:25:44;;;;;;;2.80;1.58;;;;;;;13.08;71.10;101700.03;5075634;27;96754;-34
2022/06/21 04:28:19;;;;;;;1.60;1.17;;;;;;;13.06;70.94;101702.88;5076131;27;96822;-33
2022/06/21 04:31:02;;;;;;;4.32;1.58;;;;;;;13.03;70.47;101705.75;5074611;27;101105;-34
2022/06/21 04:33:33;;;;;;;4.20;1.85;;;;;;;13.10;70.11;101706.25;5074537;27;100817;-34
2022/06/21 04:36:06;;;;;;;5.03;1.90;;;;;;;13.06;70.39;101688.34;5076312;27;96679;-33
2022/06/21 04:38:52;;;;;;;6.75;1.80;;;;;;;13.13;69.90;101706.97;5074968;27;96443;-34
2022/06/21 04:41:25;;;;;;;3.30;1.80;;;;;;;13.07;69.81;101696.44;5075362;27;97879;-34
2022/06/21 04:43:59;;;;;;;8.25;2.10;;;;;;;13.12;69.59;101696.19;5074098;27;100373;-34
2022/06/21 04:46:37;;;;;;;4.53;2.03;;;;;;;13.13;70.53;101706.06;5074784;27;97284;-34
2022/06/21 04:49:12;;;;;;;7.15;2.30;;;;;;;13.13;69.51;101708.78;5074641;27;96571;-34
2022/06/21 04:51:45;;;;;;;8.10;1.88;;;;;;;13.10;70.04;101693.53;5075592;27;97509;-34
2022/06/21 04:54:22;;;;;;;2.45;1.67;;;;;;;13.18;70.10;101699.41;5074134;27;99867;-34
2022/06/21 04:57:06;;;;;;;5.93;1.85;;;;;;;13.18;70.75;101693.97;5074531;27;96710;-34
2022/06/21 04:59:41;;;;;;;4.07;1.85;;;;;;;13.27;69.84;101698.00;5076323;27;96866;-34
2022/06/21 05:02:15;;;;;;;6.45;1.80;;;;;;;13.24;69.23;101686.41;5073999;27;100786;-34
2022/06/21 05:04:41;;;;;;;3.05;1.52;;;;;;;13.33;69.59;101703.09;5074076;27;100735;-34
2022/06/21 05:07:14;;;;;;;3.35;1.90;;;;;;;13.28;70.60;101697.06;5073863;27;96710;-34
2022/06/21 05:09:41;;;;;;;5.65;1.88;;;;;;;13.40;69.83;101694.59;5074272;27;98024;-34
2022/06/21 05:12:22;;;;;;;5.30;1.98;;;;;;;13.42;70.47;101712.56;5075453;27;98064;-34
2022/06/21 05:14:51;;;;;;;5.95;1.73;;;;;;;13.36;69.26;101708.34;5073960;27;100794;-33
2022/06/21 05:17:19;;;;;;;6.80;2.13;;;;;;;13.44;70.44;101705.16;5073941;27;96657;-34
2022/06/21 05:19:51;;;;;;;4.68;2.45;;;;;;;13.46;69.48;101691.47;5074189;27;96876;-34
2022/06/21 05:22:19;;;;;;;2.45;1.55;;;;;;;13.53;70.76;101692.84;5074037;27;99908;-34
2022/06/21 05:24:45;;;;;;;2.85;1.75;;;;;;;13.61;69.00;101704.19;5074021;27;100975;-33
2022/06/21 05:27:16;;;;;;;3.20;1.60;;;;;;;13.73;69.96;101708.88;5075855;27;96518;-34
2022/06/21 05:29:50;;;;;;;9.23;2.13;;;;;;;13.71;71.03;101696.31;5075356;27;96738;-34
2022/06/21 05:32:27;;;;;;;2.28;1.33;;;;;;;13.80;69.61;101701.22;5073042;27;100918;-34
2022/06/21 05:35:16;;;;;;;2.20;1.30;;;;;;;13.92;70.03;101710.44;5073828;27;100711;-34
2022/06/21 05:37:55;;;;;;;3.10;1.75;;;;;;;13.97;69.39;101702.88;5075415;27;96661;-34
2022/06/21 05:40:44;;;;;;;4.93;1.77;;;;;;;14.08;69.07;101710.38;5074025;27;96673;-34
2022/06/21 05:43:18;;;;;;;3.67;1.42;;;;;;;14.13;69.17;101719.13;5074741;27;98040;-34
2022/06/21 05:45:51;;;;;;;3.25;1.80;;;;;;;14.14;68.49;101707.28;5071746;27;100674;-35
2022/06/21 05:48:22;;;;;;;3.92;2.22;;;;;;;14.24;68.63;101711.16;5073860;27;96609;-34
2022/06/21 05:50:48;;;;;;;3.78;1.42;;;;;;;14.29;68.86;101717.19;5074178;27;96720;-34
2022/06/21 05:53:31;;;;;;;3.85;1.90;;;;;;;14.37;68.98;101730.34;5074020;27;100839;-34
2022/06/21 05:56:03;;;;;;;7.22;1.83;;;;;;;14.46;68.39;101732.47;5078324;27;99138;-34
2022/06/21 05:58:35;;;;;;;;;;;;;;;14.60;69.31;101737.09;5077462;27;96755;-34
2022/06/21 06:01:13;;;;;;;1.77;1.20;;;;;;;14.66;67.64;101731.25;5077240;27;96840;-34
2022/06/21 06:04:25;;;;;;;7.20;1.77;;;;;;;14.77;68.65;101741.44;5076958;27;100673;-34
2022/06/21 06:06:54;;;;;;;1.97;1.27;;;;;;;14.83;67.51;101733.75;5074854;27;97969;-34
2022/06/21 06:09:27;;;;;;;2.80;1.40;;;;;;;14.85;67.73;101739.13;5076980;27;96631;-34
2022/06/21 06:12:18;;;;;;;5.22;1.63;;;;;;;14.87;67.47;101739.84;5078704;27;96536;-34
2022/06/21 06:15:01;;;;;;;3.05;1.80;;;;;;;14.82;67.71;101739.28;5076728;27;100719;-33
2022/06/21 06:17:48;;;;;;;2.60;1.38;;;;;;;14.83;68.79;101752.84;5077053;27;101247;-34
2022/06/21 06:20:19;;;;;;;4.68;1.63;;;;;;;14.82;67.68;101751.06;5077053;27;96688;-34
2022/06/21 06:23:08;;;;;;;4.63;1.70;;;;;;;14.98;68.09;101755.53;5078407;27;96761;-34
2022/06/21 06:25:47;;;;;;;6.97;1.73;;;;;;;15.10;68.07;101764.78;5076733;27;97458;-34
2022/06/21 06:28:19;;;;;;;5.75;1.60;;;;;;;15.29;66.96;101768.91;5076532;27;100702;-34
2022/06/21 06:30:49;;;;;;;4.72;2.15;;;;;;;15.45;67.79;101771.50;5078578;27;96440;-34
2022/06/21 06:33:24;;;;;;;2.72;1.70;;;;;;;15.55;66.24;101777.19;5076698;27;96868;-34
2022/06/21 06:35:52;;;;;;;2.50;1.30;;;;;;;15.47;66.58;101774.13;5076550;27;100989;-34
2022/06/21 06:38:18;;;;;;;3.58;1.48;;;;;;;15.43;66.78;101775.31;5076050;27;101023;-34
2022/06/21 06:40:50;;;;;;;2.70;1.25;;;;;;;15.50;66.81;101766.59;5076680;27;96510;-34
2022/06/21 06:43:29;;;;;;;4.32;1.30;;;;;;;15.58;66.70;101763.34;5076653;27;96869;-34
2022/06/21 06:45:57;;;;;;;4.18;1.17;;;;;;;15.77;65.69;101762.97;5076235;27;100840;-34
2022/06/21 06:48:29;;;;;;;4.90;1.17;;;;;;;16.00;65.66;101776.94;5076245;27;100871;-34
2022/06/21 06:51:03;;;;;;;4.45;1.45;;;;;;;15.99;65.55;101781.50;5075733;27;96692;-34
2022/06/21 06:53:36;;;;;;;1.90;1.20;;;;;;;16.11;65.16;101779.75;5076402;27;96780;-34
2022/06/21 06:56:09;;;;;;;2.75;1.38;;;;;;;16.36;64.74;101773.44;5077813;27;97354;-34
2022/06/21 06:58:46;;;;;;;2.65;1.25;;;;;;;16.50;64.16;101770.59;5077950;27;97271;-34
2022/06/21 07:01:21;;;;;;;5.93;1.65;;;;;;;16.53;63.67;101770.38;5076323;27;96537;-34
2022/06/21 07:04:01;;;;;;;4.35;1.35;;;;;;;16.66;63.62;101769.47;5076357;27;96810;-34
2022/06/21 07:06:41;;;;;;;8.05;1.50;;;;;;;16.62;63.52;101774.31;5077486;27;97937;-33
2022/06/21 07:09:16;;;;;;;2.78;1.20;;;;;;;16.64;63.35;101777.81;5076149;27;100783;-33
2022/06/21 07:11:42;;;;;;;8.65;1.67;;;;;;;16.72;63.03;101775.38;5076040;27;96620;-34
2022/06/21 07:14:21;;;;;;;2.50;1.23;;;;;;;16.85;62.95;101761.75;5077777;27;96824;-33
2022/06/21 07:16:53;;;;;;;3.95;1.35;;;;;;;17.04;62.08;101777.69;5075325;27;101477;-34
2022/06/21 07:19:19;;;;;;;4.25;1.33;;;;;;;17.14;62.24;101772.38;5075803;27;99431;-34
2022/06/21 07:21:50;;;;;;;1.80;1.10;;;;;;;17.23;62.10;101763.47;5077504;27;97027;-33
2022/06/21 07:24:19;;;;;;;1.45;0.90;;;;;;;17.34;61.73;101776.38;5077348;27;96782;-34
2022/06/21 07:26:51;;;;;;;2.72;1.10;;;;;;;17.36;60.93;101769.78;5075239;27;101030;-34
2022/06/21 07:29:37;;;;;;;2.05;1.17;;;;;;;17.35;60.41;101759.81;5075691;27;101250;-34
2022/06/21 07:32:08;;;;;;;3.10;1.35;;;;;;;17.30;61.07;101758.41;5075685;27;96583;-34
2022/06/21 07:35:16;;;;;;;1.45;0.85;;;;;;;17.43;61.08;101752.88;5076320;27;96747;-34
2022/06/21 07:37:47;;;;;;;5.47;1.60;;;;;;;17.68;60.47;101741.78;5069834;27;101274;-34
2022/06/21 07:40:36;;;;;;;3.30;1.35;;;;;;;18.05;60.08;101752.66;5075403;27;100829;-34
2022/06/21 07:43:16;;;;;;;2.67;1.27;;;;;;;18.24;59.75;101744.72;5074763;27;96609;-34
2022/06/21 07:45:50;;;;;;;2.85;1.23;;;;;;;18.45;58.77;101738.50;5075769;27;96710;-34
2022/06/21 07:48:40;;;;;;;5.60;1.20;;;;;;;18.66;58.67;101738.59;5075410;27;100975;-34
2022/06/21 07:51:11;;;;;;;3.47;1.35;;;;;;;18.80;58.31;101735.63;5076600;27;97322;-34
2022/06/21 07:53:55;;;;;;;3.97;1.23;;;;;;;18.91;57.91;101737.50;5075706;27;96465;-34
2022/06/21 07:56:33;;;;;;;2.53;1.40;;;;;;;19.03;56.93;101714.53;5075639;27;96741;-34
2022/06/21 07:59:03;;;;;;;2.78;1.17;;;;;;;19.16;56.50;101721.72;5075193;27;101124;-34
2022/06/21 08:07:15;;;;;;;3.15;1.25;;;;;;;19.28;56.02;101723.44;5077246;27;96594;-34
2022/06/21 08:09:58;;;;;;;3.47;1.17;;;;;;;19.28;55.87;101728.94;5074368;27;99999;-34
2022/06/21 08:12:24;;;;;;;2.70;1.30;;;;;;;19.45;55.20;101714.66;5074983;27;100892;-34
2022/06/21 08:14:49;;;;;;;2.47;1.50;;;;;;;19.57;56.08;101714.59;5076690;27;96593;-34
2022/06/21 08:17:33;;;;;;;4.90;1.48;;;;;;;19.68;55.14;101720.06;5076139;27;96723;-34
2022/06/21 08:20:07;;;;;;;4.22;1.35;;;;;;;19.60;55.08;101712.47;5074719;27;101331;-34
2022/06/21 08:22:47;;;;;;;2.55;1.35;;;;;;;19.39;55.91;101719.78;5074586;27;101261;-34
2022/06/21 08:25:21;;;;;;;6.13;1.65;;;;;;;19.57;55.67;101714.59;5074434;27;96610;-34
2022/06/21 08:28:09;;;;;;;1.42;1.02;;;;;;;19.64;54.86;101713.06;5075274;27;96912;-33
2022/06/21 08:30:57;;;;;;;4.80;1.45;;;;;;;19.80;55.05;101708.00;5074578;27;101490;-34
2022/06/21 08:33:43;;;;;;;2.83;1.60;;;;;;;19.85;53.59;101710.34;5074539;27;100515;-34
2022/06/21 08:36:15;;;;;;;2.75;1.50;;;;;;;19.89;54.71;101701.72;5074270;27;97092;-34
2022/06/21 08:38:53;;;;;;;5.63;1.65;;;;;;;19.87;53.72;101711.97;5074768;27;96649;-34
2022/06/21 08:41:52;;;;;;;4.57;1.42;;;;;;;19.95;53.71;101708.56;5076114;27;97430;-34
2022/06/21 08:44:32;;;;;;;1.67;1.05;;;;;;;19.89;53.76;101715.47;5073993;27;101291;-34
2022/06/21 08:47:09;;;;;;;2.38;0.88;;;;;;;19.97;52.76;101702.91;5060117;27;98946;-34
2022/06/21 08:50:08;;;;;;;4.38;1.15;;;;;;;20.22;53.20;101705.25;5054153;27;96775;-34
2022/06/21 08:52:58;;;;;;;2.75;1.30;;;;;;;20.38;52.37;101699.25;5055530;27;97864;-34
2022/06/21 08:55:38;;;;;;;2.42;1.00;;;;;;;20.36;52.23;101704.88;5055797;27;97887;-34
2022/06/21 08:58:32;;;;;;;3.35;1.10;;;;;;;20.21;51.91;101702.63;5055601;27;96762;-34
2022/06/21 09:01:08;;;;;;;1.60;1.02;;;;;;;20.38;52.20;101702.00;5055700;27;96856;-34
2022/06/21 09:03:33;;;;;;;3.30;1.25;;;;;;;20.56;51.44;101702.25;5053251;27;100823;-34
2022/06/21 09:06:14;;;;;;;3.60;1.40;;;;;;;20.77;51.76;101699.44;5055122;27;97749;-34
2022/06/21 09:09:00;;;;;;;2.90;1.00;;;;;;;20.96;50.83;101698.63;5054025;27;96800;-34
2022/06/21 09:11:41;;;;;;;2.50;1.17;;;;;;;21.21;50.16;101700.84;5053873;27;96718;-34
2022/06/21 09:14:28;;;;;;;5.80;1.10;;;;;;;21.40;49.56;101694.50;5053669;27;100620;-34
2022/06/21 09:17:54;;;;;;;3.00;1.33;;;;;;;21.53;48.09;101683.19;5054773;27;99597;-34
2022/06/21 09:20:57;;;;;;;3.33;1.02;;;;;;;21.68;48.46;101686.38;5031228;27;96587;-34
2022/06/21 09:23:50;;;;;;;4.82;1.50;;;;;;;21.69;48.50;101674.34;5055498;27;96901;-34
2022/06/21 09:26:26;;;;;;;3.80;1.50;;;;;;;21.61;49.19;101674.19;5051511;27;100856;-34
2022/06/21 09:29:13;;;;;;;5.35;1.77;;;;;;;21.63;48.94;101678.53;5056417;27;97298;-34
2022/06/21 09:31:56;;;;;;;3.03;1.25;;;;;;;21.67;48.45;101670.84;5056941;27;96589;-34
2022/06/21 09:34:28;;;;;;;5.07;1.42;;;;;;;21.51;48.18;101668.66;5058620;27;96853;-34
2022/06/21 09:37:04;;;;;;;3.55;1.50;;;;;;;21.67;49.25;101661.72;5056844;27;100827;-34
2022/06/21 09:39:53;;;;;;;3.75;2.10;;;;;;;21.50;49.72;101666.94;5056830;27;100808;-35
2022/06/21 09:42:27;;;;;;;3.55;1.70;;;;;;;21.24;50.20;101665.72;5058634;27;96598;-34
2022/06/21 09:45:14;;;;;;;5.93;1.42;;;;;;;21.09;49.85;101670.78;5058177;27;96853;-34
2022/06/21 09:47:51;;;;;;;3.92;1.65;;;;;;;20.89;50.85;101667.13;5058303;27;97995;-34
2022/06/21 09:50:43;;;;;;;2.65;1.48;;;;;;;20.95;50.80;101666.56;5058648;27;97557;-34
2022/06/21 09:53:28;;;;;;;3.40;1.73;;;;;;;21.11;50.45;101672.38;5058554;27;97173;-34
2022/06/21 09:55:59;;;;;;;1.58;1.20;;;;;;;21.13;50.22;101661.22;5058268;27;96804;-34
2022/06/21 09:58:45;;;;;;;7.05;1.65;;;;;;;21.14;50.06;101660.19;5057317;27;97974;-34
2022/06/21 10:01:30;;;;;;;5.47;2.20;;;;;;;21.23;49.64;101658.47;5056566;27;100946;-34
2022/06/21 10:03:59;;;;;;;2.78;1.13;;;;;;;21.40;49.85;101655.03;5056850;27;96641;-34
2022/06/21 10:06:48;;;;;;;3.67;1.55;;;;;;;21.53;49.10;101650.09;5056806;27;96802;-34
2022/06/21 10:09:40;;;;;;;3.17;1.63;;;;;;;21.67;47.28;101642.41;5057941;27;97477;-34
2022/06/21 10:12:12;;;;;;;3.10;1.67;;;;;;;21.90;48.62;101645.69;5056386;27;101081;-34
2022/06/21 10:15:10;;;;;;;6.35;1.70;;;;;;;22.23;46.79;101644.28;5058129;27;96497;-34
2022/06/21 10:17:36;;;;;;;3.15;1.67;;;;;;;22.32;45.17;101646.16;5058158;27;96823;-34
2022/06/21 10:20:13;;;;;;;4.40;1.50;;;;;;;22.40;47.06;101642.63;5057742;27;97948;-34
2022/06/21 10:23:22;;;;;;;5.45;1.52;;;;;;;22.58;46.81;101642.69;5056220;27;101186;-34
2022/06/21 10:26:16;;;;;;;4.38;1.58;;;;;;;22.67;45.31;101628.84;5034107;28;96918;-34
2022/06/21 10:29:00;;;;;;;4.35;1.75;;;;;;;22.89;46.17;101633.03;5041904;27;96795;-34
2022/06/21 10:31:35;;;;;;;3.75;1.67;;;;;;;22.99;46.55;101629.38;5056216;27;100808;-34
2022/06/21 10:34:17;;;;;;;7.10;1.95;;;;;;;23.17;46.09;101629.38;5056837;27;99301;-34
2022/06/21 10:36:55;;;;;;;2.78;1.50;;;;;;;23.24;43.63;101625.84;5056251;27;96592;-34
2022/06/21 10:39:32;;;;;;;3.28;1.65;;;;;;;23.17;43.39;101629.38;5055872;27;96832;-34
2022/06/21 10:45:06;;;;;;;4.50;1.25;;;;;;;22.69;46.01;101628.66;5057249;27;97044;-34
2022/06/21 10:47:45;;;;;;;6.25;1.75;;;;;;;22.52;45.61;101630.34;5056256;27;96631;-34
2022/06/21 10:50:27;;;;;;;2.50;1.60;;;;;;;22.27;47.26;101637.47;5057687;27;96524;-34
2022/06/21 10:53:09;;;;;;;2.38;1.23;;;;;;;22.17;46.40;101642.13;5055188;27;101152;-34
2022/06/21 10:55:37;;;;;;;4.68;1.90;;;;;;;22.13;47.09;101636.03;5057008;27;98905;-34
2022/06/21 10:58:20;;;;;;;3.95;1.52;;;;;;;22.21;47.08;101633.41;5057386;27;96592;-34
2022/06/21 11:03:54;;;;;;;2.38;1.50;;;;;;;22.06;47.43;101638.50;5054831;27;98128;-34
2022/06/21 11:06:27;;;;;;;4.00;1.67;;;;;;;22.10;47.31;101635.47;5057012;27;97362;-34
2022/06/21 11:09:03;;;;;;;2.22;1.15;;;;;;;22.05;46.60;101638.69;5055927;27;96592;-34
2022/06/21 11:11:40;;;;;;;9.43;1.60;;;;;;;22.06;46.52;101621.97;5056167;27;96793;-34
2022/06/21 11:14:14;;;;;;;4.28;1.73;;;;;;;22.11;45.86;101637.19;5055390;27;101155;-34
2022/06/21 11:16:47;;;;;;;3.75;1.60;;;;;;;22.10;47.15;101641.00;5056849;27;98072;-34
2022/06/21 11:19:47;;;;;;;3.58;1.75;;;;;;;22.12;45.87;101634.31;5055073;27;96682;-34
2022/06/21 11:22:52;;;;;;;4.00;1.67;;;;;;;22.12;46.72;101641.69;5057193;27;96580;-34
2022/06/21 11:25:40;;;;;;;4.97;1.50;;;;;;;21.96;46.96;101650.63;5054552;27;100512;-34
2022/06/21 11:28:15;;;;;;;4.60;1.67;;;;;;;21.86;46.10;101639.59;5056596;27;98049;-34
2022/06/21 11:30:40;;;;;;;3.13;1.48;;;;;;;21.75;45.59;101639.75;5055390;27;96764;-34
2022/06/21 11:33:17;;;;;;;5.57;1.70;;;;;;;21.72;47.12;101634.56;5056615;27;96820;-34
2022/06/21 11:35:59;;;;;;;3.20;1.48;;;;;;;21.64;47.28;101624.25;5055172;27;100563;-34
2022/06/21 11:39:00;;;;;;;3.47;1.35;;;;;;;21.69;44.80;101623.78;5055311;27;101204;-34
2022/06/21 11:42:10;;;;;;;5.47;1.25;;;;;;;21.62;46.12;101609.75;5044487;27;96814;-34
2022/06/21 11:44:54;;;;;;;4.53;1.30;;;;;;;21.67;46.51;101620.34;5056216;27;96807;-35
2022/06/21 11:47:42;;;;;;;7.10;1.70;;;;;;;21.73;46.17;101611.47;5055674;27;99077;-34
2022/06/21 11:50:20;;;;;;;9.38;1.67;;;;;;;21.77;45.96;101618.44;5056415;27;97280;-34
2022/06/21 11:53:02;;;;;;;2.72;1.60;;;;;;;21.81;46.92;101619.88;5054502;27;96594;-34
2022/06/21 11:55:59;;;;;;;5.90;1.80;;;;;;;21.86;46.55;101614.78;5055191;27;96763;-34
2022/06/21 11:58:50;;;;;;;4.07;1.63;;;;;;;21.84;46.81;101608.53;5056038;27;98363;-34
2022/06/21 12:01:23;;;;;;;5.70;2.10;;;;;;;21.76;46.79;101597.38;5055895;27;97820;-35
2022/06/21 12:04:16;;;;;;;3.75;1.65;;;;;;;21.79;47.72;101606.22;5055009;27;96639;-34
2022/06/21 12:07:03;;;;;;;3.60;2.10;;;;;;;21.77;47.65;101588.94;5056901;27;96836;-34
2022/06/21 12:09:45;;;;;;;2.50;1.60;;;;;;;21.93;47.52;101598.47;5054519;27;101801;-34
2022/06/21 12:12:24;;;;;;;2.35;1.65;;;;;;;22.02;47.06;101594.81;5055753;27;97427;-34
2022/06/21 12:14:58;;;;;;;4.65;2.13;;;;;;;22.01;47.25;101593.94;5054203;27;96679;-34
2022/06/21 12:17:47;;;;;;;6.88;2.85;;;;;;;21.95;47.12;101578.03;5056292;27;96626;-34
2022/06/21 12:20:23;;;;;;;7.05;2.38;;;;;;;22.00;47.09;101586.72;5054395;27;100814;-34
2022/06/21 12:22:55;;;;;;;5.20;2.00;;;;;;;21.93;46.85;101582.81;5054314;27;99518;-34
2022/06/21 12:25:21;;;;;;;3.63;2.05;;;;;;;21.83;47.47;101579.19;5054237;27;96640;-34